createdAt,value
2019-01-13T00:04:23.359Z,84.46
2019-01-13T00:09:25.815Z,84.40
2019-01-13T00:14:28.357Z,84.30
2019-01-13T00:19:30.822Z,84.31
2019-01-13T00:24:33.311Z,84.31
2019-01-13T00:29:35.781Z,84.53
2019-01-13T00:34:38.278Z,84.51
2019-01-13T00:39:40.786Z,84.51
2019-01-13T00:44:43.889Z,84.68
2019-01-13T00:49:45.723Z,84.64
2019-01-13T00:54:48.202Z,84.61
2019-01-13T00:59:50.666Z,84.71
2019-01-13T01:04:53.118Z,84.64
2019-01-13T01:09:55.594Z,84.64
2019-01-13T01:14:58.053Z,84.58
2019-01-13T01:20:00.526Z,84.49
2019-01-13T01:25:02.992Z,84.40
2019-01-13T01:30:08.091Z,84.39
2019-01-13T01:35:11.453Z,84.27
2019-01-13T01:40:16.867Z,84.32
2019-01-13T01:45:19.321Z,84.11
2019-01-13T01:50:21.777Z,84.19
2019-01-13T01:55:24.231Z,84.08
2019-01-13T02:00:26.687Z,83.93
2019-01-13T02:05:29.139Z,83.93
2019-01-13T02:10:31.597Z,83.98
2019-01-13T02:15:34.054Z,83.98
2019-01-13T02:20:36.553Z,84.02
2019-01-13T02:25:38.998Z,84.06
2019-01-13T02:30:48.838Z,84.01
2019-01-13T02:35:43.933Z,84.03
2019-01-13T02:40:46.394Z,84.08
2019-01-13T02:45:48.850Z,83.99
2019-01-13T02:50:51.295Z,84.13
2019-01-13T02:55:53.825Z,84.17
2019-01-13T03:00:57.175Z,84.17
2019-01-13T03:05:58.692Z,84.18
2019-01-13T03:11:01.149Z,84.14
2019-01-13T03:16:03.601Z,84.31
2019-01-13T03:21:06.018Z,84.44
2019-01-13T03:26:08.486Z,84.25
2019-01-13T03:31:12.595Z,84.35
2019-01-13T03:36:13.414Z,84.27
2019-01-13T03:41:15.862Z,84.45
2019-01-13T03:46:18.324Z,84.42
2019-01-13T03:51:20.791Z,84.53
2019-01-13T03:56:23.255Z,84.72
2019-01-13T04:01:25.693Z,84.79
2019-01-13T04:06:28.146Z,84.65
2019-01-13T04:16:54.992Z,84.76
2019-01-13T04:21:57.448Z,84.61
2019-01-13T04:26:59.931Z,84.53
2019-01-13T04:32:02.405Z,84.50
2019-01-13T04:37:04.876Z,84.61
2019-01-13T04:42:07.327Z,84.69
2019-01-13T04:47:09.779Z,84.61
2019-01-13T04:52:12.237Z,84.82
2019-01-13T04:57:14.718Z,84.74
2019-01-13T05:02:17.200Z,84.94
2019-01-13T05:07:19.670Z,84.86
2019-01-13T05:12:22.144Z,84.89
2019-01-13T05:17:24.618Z,84.98
2019-01-13T05:22:27.096Z,84.83
2019-01-13T05:27:29.554Z,84.71
2019-01-13T05:32:32.052Z,84.83
2019-01-13T05:37:34.505Z,84.80
2019-01-13T05:42:37.030Z,84.86
2019-01-13T05:47:39.427Z,84.96
2019-01-13T05:52:41.877Z,84.99
2019-01-13T05:57:44.338Z,84.95
2019-01-13T06:02:46.799Z,85.13
2019-01-13T06:07:49.259Z,85.19
2019-01-13T06:12:51.728Z,85.27
2019-01-13T06:17:54.195Z,85.12
2019-01-13T06:22:56.651Z,85.08
2019-01-13T06:27:59.104Z,84.96
2019-01-13T06:33:01.567Z,84.88
2019-01-13T06:38:04.018Z,84.87
2019-01-13T06:43:06.497Z,84.93
2019-01-13T06:48:08.959Z,84.91
2019-01-13T06:53:11.430Z,85.14
2019-01-13T06:58:13.909Z,85.13
2019-01-13T07:03:16.355Z,85.15
2019-01-13T07:08:18.827Z,85.22
2019-01-13T07:13:21.339Z,85.08
2019-01-13T07:18:23.757Z,85.07
2019-01-13T07:23:26.217Z,84.90
2019-01-13T07:28:28.695Z,85.02
2019-01-13T07:33:31.175Z,84.80
2019-01-13T07:38:33.654Z,84.74
2019-01-13T07:43:36.117Z,84.85
2019-01-13T07:48:38.580Z,84.76
2019-01-13T07:53:41.040Z,84.82
2019-01-13T07:58:43.504Z,84.81
2019-01-13T08:03:45.952Z,84.40
2019-01-13T08:08:48.422Z,84.40
2019-01-13T08:13:50.885Z,84.35
2019-01-13T08:18:53.335Z,84.39
2019-01-13T08:23:55.813Z,84.67
2019-01-13T08:28:58.273Z,84.82
2019-01-13T08:34:00.879Z,84.74
2019-01-13T08:39:03.345Z,84.70
2019-01-13T08:44:05.814Z,84.78
2019-01-13T08:49:08.286Z,84.69
2019-01-13T08:54:10.775Z,84.73
2019-01-13T08:59:13.271Z,84.84
2019-01-13T09:04:15.751Z,84.80
2019-01-13T09:09:18.216Z,84.80
2019-01-13T09:14:20.701Z,85.03
2019-01-13T09:19:23.144Z,85.19
2019-01-13T09:24:25.627Z,85.28
2019-01-13T09:29:28.096Z,85.33
2019-01-13T09:34:30.556Z,85.44
2019-01-13T09:39:33.024Z,85.62
2019-01-13T09:44:35.482Z,85.70
2019-01-13T09:49:37.935Z,85.61
2019-01-13T09:54:40.398Z,85.75
2019-01-13T09:59:43.026Z,85.57
2019-01-13T10:04:45.503Z,85.46
2019-01-13T10:09:47.952Z,85.37
2019-01-13T10:14:50.408Z,84.81
2019-01-13T10:19:52.858Z,84.87
2019-01-13T10:24:55.338Z,84.71
2019-01-13T10:29:57.784Z,84.49
2019-01-13T10:35:00.332Z,84.53
2019-01-13T10:40:02.703Z,84.61
2019-01-13T10:45:05.161Z,84.44
2019-01-13T10:50:07.627Z,84.67
2019-01-13T10:55:10.086Z,84.71
2019-01-13T11:00:18.546Z,84.43
2019-01-13T11:05:20.999Z,84.48
2019-01-13T11:10:23.480Z,84.31
2019-01-13T11:15:25.914Z,84.13
2019-01-13T11:20:34.422Z,84.26
2019-01-13T11:25:36.874Z,84.05
2019-01-13T11:30:39.320Z,83.88
2019-01-13T11:35:41.796Z,84.29
2019-01-13T11:40:44.253Z,84.37
2019-01-13T11:45:46.746Z,84.20
2019-01-13T11:50:49.196Z,84.62
2019-01-13T11:55:51.656Z,84.51
2019-01-13T12:00:54.114Z,84.42
2019-01-13T12:05:56.612Z,84.66
2019-01-13T12:10:59.109Z,84.64
2019-01-13T12:16:01.578Z,84.30
2019-01-13T12:21:04.037Z,84.47
2019-01-13T12:26:06.544Z,84.54
2019-01-13T12:31:09.010Z,84.46
2019-01-13T12:36:11.455Z,84.74
2019-01-13T12:41:14.004Z,84.79
2019-01-13T12:46:16.410Z,84.84
2019-01-13T12:51:18.833Z,85.03
2019-01-13T12:56:21.328Z,84.95
2019-01-13T13:01:23.792Z,84.97
2019-01-13T13:06:26.289Z,85.13
2019-01-13T13:11:28.745Z,85.08
2019-01-13T13:16:31.199Z,85.06
2019-01-13T13:21:33.677Z,84.67
2019-01-13T13:26:36.152Z,84.71
2019-01-13T13:31:38.590Z,84.72
2019-01-13T13:36:41.146Z,84.67
2019-01-13T13:41:43.859Z,84.91
2019-01-13T13:46:46.084Z,85.14
2019-01-13T13:51:48.558Z,85.27
2019-01-13T13:56:51.174Z,85.54
2019-01-13T14:01:53.625Z,85.59
2019-01-13T14:06:56.066Z,85.54
2019-01-13T14:11:58.543Z,85.91
2019-01-13T14:17:01.057Z,85.68
2019-01-13T14:22:03.466Z,85.88
2019-01-13T14:27:05.946Z,85.96
2019-01-13T14:32:08.408Z,86.07
2019-01-13T14:37:10.890Z,86.15
2019-01-13T14:42:13.352Z,86.34
2019-01-13T14:47:15.800Z,86.55
2019-01-13T14:52:18.283Z,86.65
2019-01-13T14:57:20.726Z,86.64
2019-01-13T15:02:23.178Z,86.68
2019-01-13T15:07:25.655Z,86.87
2019-01-13T15:12:28.101Z,86.92
2019-01-13T15:17:30.570Z,86.83
2019-01-13T15:22:33.020Z,86.90
2019-01-13T15:27:35.868Z,86.95
2019-01-13T15:32:38.321Z,86.89
2019-01-13T15:37:40.781Z,87.21
2019-01-13T15:42:43.246Z,86.99
2019-01-13T15:47:45.759Z,87.00
2019-01-13T15:52:48.222Z,87.13
2019-01-13T15:57:50.692Z,86.95
2019-01-13T16:02:53.167Z,86.85
2019-01-13T16:07:55.642Z,86.71
2019-01-13T16:12:58.140Z,86.98
2019-01-13T16:18:00.605Z,87.25
2019-01-13T16:23:03.089Z,87.12
2019-01-13T16:28:05.579Z,87.14
2019-01-13T16:33:08.043Z,86.97
2019-01-13T16:38:10.520Z,87.02
2019-01-13T16:43:12.984Z,86.71
2019-01-13T16:48:15.469Z,86.84
2019-01-13T16:53:17.930Z,86.70
2019-01-13T16:58:20.416Z,86.81
2019-01-13T17:03:22.869Z,86.75
2019-01-13T17:08:25.351Z,86.93
2019-01-13T17:13:27.817Z,86.78
2019-01-13T17:18:30.289Z,86.75
2019-01-13T17:23:32.765Z,86.59
2019-01-13T17:28:35.258Z,86.67
2019-01-13T17:33:37.758Z,86.81
2019-01-13T17:38:40.234Z,86.38
2019-01-13T17:43:42.708Z,86.41
2019-01-13T17:48:45.203Z,86.62
2019-01-13T17:53:47.675Z,86.66
2019-01-13T17:58:50.168Z,86.63
2019-01-13T18:03:52.635Z,86.62
2019-01-13T18:08:55.075Z,86.75
2019-01-13T18:13:57.544Z,86.83
2019-01-13T18:19:00.013Z,86.59
2019-01-13T18:24:02.464Z,86.69
2019-01-13T18:29:04.932Z,86.49
2019-01-13T18:34:07.402Z,86.68
2019-01-13T18:39:09.869Z,86.40
2019-01-13T18:44:12.347Z,86.50
2019-01-13T18:49:14.815Z,86.42
2019-01-13T18:54:17.289Z,86.60
2019-01-13T18:59:19.813Z,86.44
2019-01-13T19:04:22.294Z,86.69
2019-01-13T19:09:24.760Z,86.50
2019-01-13T19:14:27.224Z,86.36
2019-01-13T19:19:29.730Z,86.56
2019-01-13T19:24:32.188Z,86.30
2019-01-13T19:29:34.631Z,86.22
2019-01-13T19:34:37.091Z,86.28
2019-01-13T19:39:39.554Z,86.35
2019-01-13T19:44:42.033Z,86.55
2019-01-13T19:49:44.536Z,86.22
2019-01-13T19:54:47.013Z,86.12
2019-01-13T19:59:49.474Z,86.26
2019-01-13T20:04:51.939Z,86.32
2019-01-13T20:09:54.402Z,86.48
2019-01-13T20:14:56.840Z,86.72
2019-01-13T20:19:59.355Z,86.90
2019-01-13T20:25:01.832Z,86.62
2019-01-13T20:30:04.282Z,86.75
2019-01-13T20:35:06.751Z,87.06
2019-01-13T20:40:09.205Z,86.99
2019-01-13T20:45:17.456Z,87.25
2019-01-13T20:50:19.912Z,87.49
2019-01-13T20:55:22.383Z,87.59
2019-01-13T21:00:24.836Z,87.89
2019-01-13T21:05:27.330Z,87.96
2019-01-13T21:10:29.823Z,88.02
2019-01-13T21:15:32.299Z,88.13
2019-01-13T21:20:34.772Z,87.75
2019-01-13T21:25:37.253Z,87.46
2019-01-13T21:30:39.772Z,87.04
2019-01-13T21:35:42.244Z,86.67
2019-01-13T21:40:44.723Z,86.47
2019-01-13T21:45:47.184Z,86.56
2019-01-13T21:50:49.649Z,86.32
2019-01-13T21:55:52.099Z,86.16
2019-01-13T22:00:54.576Z,86.11
2019-01-13T22:05:57.291Z,86.02
2019-01-13T22:10:59.745Z,85.99
2019-01-13T22:16:02.197Z,86.09
2019-01-13T22:21:04.650Z,86.17
2019-01-13T22:26:07.104Z,86.01
2019-01-13T22:31:09.565Z,86.03
2019-01-13T22:36:12.020Z,86.18
2019-01-13T22:41:14.625Z,86.30
2019-01-13T22:46:17.077Z,86.41
2019-01-13T22:51:19.547Z,86.45
2019-01-13T22:56:22.003Z,86.42
2019-01-13T23:01:24.452Z,86.15
2019-01-13T23:06:26.911Z,86.46
2019-01-13T23:11:29.369Z,86.59
2019-01-13T23:16:31.832Z,86.58
2019-01-13T23:21:34.282Z,86.71
2019-01-13T23:26:36.751Z,86.68
2019-01-13T23:31:39.195Z,86.96
2019-01-13T23:36:41.651Z,87.20
2019-01-13T23:41:44.098Z,87.58
2019-01-13T23:46:46.555Z,87.45
2019-01-13T23:51:49.012Z,87.20
2019-01-13T23:56:51.830Z,87.11
